LH1255 / D-ACNH 7700 Squawk Report (20th of May, 2019)

Aircraft CRJ9 Reg No. D-ACNH Age 9 years old
Model Regional-Jet Jet engines 2 First flight 08-10-09
Registered 05-11-09 Rollout 10-09 Delivered 06-11-09
Construction No. 15247 Line No. N/A Series 900
ADSHEX 3C4DC8 Airline name Lufthansa Regional Owner Lufthansa Cityline
Airfield based Munich~Bayern~D First tracked 2017-07-13 05:17:00
Time Lat Lon Altitude Heading Speed Vertical Rate
2019-05-20 05:43:15 GMT 48.579308 8.613209 4,775 74 248 -192
2019-05-20 05:43:15 GMT 48.579308 8.613209 6,250 74 248 -192
2019-05-20 05:43:10 GMT 48.578190 8.606632 6,200 74 248 -192
2019-05-20 05:42:58 GMT 48.574097 8.584731 6,250 75 284 -1024
2019-05-20 05:42:45 GMT 48.570698 8.563481 6,250 75 284 -1024
2019-05-20 05:42:32 GMT 48.565205 8.539702 6,275 75 284 -1024
2019-05-20 05:42:23 GMT 48.562317 8.530233 6,475 75 284 -1024
2019-05-20 05:42:15 GMT 48.560223 8.517729 6,625 75 284 -1024
2019-05-20 05:42:03 GMT 48.555893 8.493733 6,775 75 284 -1024
2019-05-20 05:41:48 GMT 48.552586 8.470098 7,025 75 284 -1024
2019-05-20 05:41:43 GMT 48.550491 8.457666 7,125 75 284 -1024
2019-05-20 05:41:28 GMT 48.545513 8.432079 7,275 75 284 -1024
2019-05-20 05:41:21 GMT 48.545883 8.417696 7,475 75 284 -1024
2019-05-20 05:41:05 GMT 48.539879 8.387194 7,650 75 284 -1024
2019-05-20 05:40:59 GMT 48.538017 8.376569 7,825 75 284 -1024
2019-05-20 05:40:49 GMT 48.534290 8.355464 8,025 75 284 -1024
2019-05-20 05:40:40 GMT 48.531498 8.339418 8,175 75 284 -1024
2019-05-20 05:40:28 GMT 48.528194 8.322288 8,375 75 284 -1024
2019-05-20 05:40:17 GMT 48.524517 8.300099 8,625 75 284 -1024
2019-05-20 05:40:03 GMT 48.520699 8.275668 8,750 75 284 -1024
2019-05-20 05:39:51 GMT 48.516090 8.249070 8,950 75 289 -1600
2019-05-20 05:39:42 GMT 48.513809 8.235915 9,150 75 289 -1600
2019-05-20 05:39:29 GMT 48.509293 8.211413 9,325 75 289 -1600
2019-05-20 05:39:18 GMT 48.505196 8.188428 9,750 75 289 -1600
2019-05-20 05:39:12 GMT 48.502914 8.174912 9,725 75 284 -1380
2019-05-20 05:38:57 GMT 48.498306 8.147808 10,000 75 282 -1380
2019-05-20 05:38:47 GMT 48.495281 8.130172 10,350 74 282 -1380
2019-05-20 05:38:33 GMT 48.486996 8.081890 10,625 75 291 -1800
2019-05-20 05:38:23 GMT 48.486996 8.081890 10,850 74 279 -1800
2019-05-20 05:38:16 GMT 48.484806 8.070325 11,175 74 294 -1560
2019-05-20 05:38:02 GMT 48.478615 8.043799 11,450 74 295 -1440
2019-05-20 05:37:56 GMT 48.474705 8.025513 12,000 75 307 -1600
2019-05-20 05:37:44 GMT 48.470886 8.007082 12,100 74 311 -2400
2019-05-20 05:37:34 GMT 48.467396 7.984314 12,425 74 311 -2400
2019-05-20 05:37:20 GMT 48.461811 7.953812 12,700 74 309 -1740
2019-05-20 05:37:07 GMT 48.457203 7.928298 12,950 75 318 -1740
2019-05-20 05:37:00 GMT 48.455807 7.917890 13,300 74 319 -960
2019-05-20 05:36:48 GMT 48.450684 7.890497 13,825 74 324 -1600
2019-05-20 05:36:35 GMT 48.444679 7.862236 14,300 76 321 -1152
2019-05-20 05:36:26 GMT 48.441792 7.843805 14,225 74 346 -768
2019-05-20 05:36:15 GMT 48.438488 7.819591 14,475 74 346 -768
2019-05-20 05:36:03 GMT 48.434483 7.795595 14,775 74 346 -768
2019-05-20 05:35:51 GMT 48.430481 7.770876 14,850 74 346 -768
2019-05-20 05:35:43 GMT 48.425686 7.749481 15,050 75 343 -1800
2019-05-20 05:35:32 GMT 48.421078 7.723100 15,050 75 343 -1800
2019-05-20 05:35:19 GMT 48.415489 7.695489 15,050 75 343 -1800
2019-05-20 05:35:06 GMT 48.406693 7.646412 15,400 74 349 -1800
2019-05-20 05:34:58 GMT 48.406693 7.646412 15,650 74 352 -1200
2019-05-20 05:34:47 GMT 48.402596 7.622777 15,950 74 357 -1440
2019-05-20 05:34:34 GMT 48.397102 7.589312 16,575 74 353 -1664
2019-05-20 05:34:26 GMT 48.394077 7.572688 16,575 74 351 -1620
2019-05-20 05:34:13 GMT 48.387886 7.540090 16,900 74 356 -1728
2019-05-20 05:34:00 GMT 48.382393 7.511685 17,500 74 356 -1728
2019-05-20 05:33:54 GMT 48.379414 7.495567 17,525 73 371 -1980
2019-05-20 05:33:43 GMT 48.375317 7.471787 18,000 74 361 -1728
2019-05-20 05:33:29 GMT 48.364002 7.415482 18,150 73 368 -1020
2019-05-20 05:33:20 GMT 48.364002 7.415482 18,425 74 352 -1800
2019-05-20 05:33:05 GMT 48.359303 7.381801 19,075 73 375 -1728
2019-05-20 05:32:58 GMT 48.355904 7.364165 19,050 72 359 -900
2019-05-20 05:32:45 GMT 48.348595 7.326508 19,775 73 374 -1600
2019-05-20 05:32:36 GMT 48.345291 7.309305 19,675 73 391 -1620
2019-05-20 05:32:23 GMT 48.339005 7.277069 20,075 73 391 -1620
2019-05-20 05:32:15 GMT 48.335003 7.257120 20,325 74 361 -1620
2019-05-20 05:32:04 GMT 48.328300 7.224234 20,575 76 384 -1740
2019-05-20 05:31:53 GMT 48.323505 7.199008 21,100 77 382 -1728
2019-05-20 05:31:41 GMT 48.318802 7.168073 21,200 76 399 -1620
2019-05-20 05:31:29 GMT 48.311913 7.119719 21,575 76 388 -1664
2019-05-20 05:31:22 GMT 48.311913 7.119719 21,975 76 388 -1664
2019-05-20 05:31:09 GMT 48.305721 7.086182 22,175 76 391 -1664
2019-05-20 05:30:57 GMT 48.301113 7.057776 22,675 76 391 -1664
2019-05-20 05:30:44 GMT 48.295200 7.020986 22,900 76 405 -1664
2019-05-20 05:30:39 GMT 48.292408 7.002483 23,000 76 405 -1664
2019-05-20 05:30:25 GMT 48.287285 6.968512 23,425 76 405 -1664
2019-05-20 05:30:14 GMT 48.283096 6.942203 23,725 76 405 -1664
2019-05-20 05:30:04 GMT 48.279419 6.914665 23,950 76 405 -1664
2019-05-20 05:29:55 GMT 48.276581 6.895872 24,225 76 405 -1664
2019-05-20 05:29:38 GMT 48.269691 6.849470 24,900 76 405 -1664
2019-05-20 05:29:32 GMT 48.267082 6.835231 25,100 76 413 -1600
2019-05-20 05:29:19 GMT 48.261078 6.792586 25,200 76 409 -1664
2019-05-20 05:29:11 GMT 48.257820 6.772782 25,475 76 409 -1664
2019-05-20 05:28:56 GMT 48.249905 6.729126 26,125 76 409 -1664
2019-05-20 05:28:50 GMT 48.247204 6.712502 26,025 76 405 -1664
2019-05-20 05:28:36 GMT 48.241478 6.676290 26,650 76 405 -1664
2019-05-20 05:28:23 GMT 48.235706 6.643621 26,700 76 418 -1500
2019-05-20 05:28:15 GMT 48.231377 6.619480 26,975 76 418 -1500
2019-05-20 05:28:07 GMT 48.228493 6.599892 27,475 76 418 -1500
2019-05-20 05:27:54 GMT 48.222717 6.561223 27,550 76 418 -1500
2019-05-20 05:27:40 GMT 48.214619 6.508604 28,025 76 418 -1500
2019-05-20 05:27:34 GMT 48.214619 6.508604 28,300 76 418 -1500
2019-05-20 05:27:21 GMT 48.209080 6.471887 28,525 76 418 -1500
2019-05-20 05:27:07 GMT 48.202423 6.428520 28,875 76 424 -1260
2019-05-20 05:27:00 GMT 48.199722 6.408065 29,375 75 430 -1600
2019-05-20 05:26:50 GMT 48.194088 6.376479 29,675 74 430 -1664
2019-05-20 05:26:37 GMT 48.188316 6.341280 30,025 74 425 -1664
2019-05-20 05:26:29 GMT 48.179192 6.289528 30,025 74 414 -1800
2019-05-20 05:26:18 GMT 48.179192 6.289528 30,525 73 422 -1664
2019-05-20 05:26:08 GMT 48.173698 6.258304 30,625 73 423 -1800
2019-05-20 05:25:57 GMT 48.168301 6.230694 30,950 74 410 -480
2019-05-20 05:25:43 GMT 48.159687 6.188472 31,200 74 422 -840
2019-05-20 05:25:31 GMT 48.149399 6.135935 31,550 74 450 -1920
2019-05-20 05:25:24 GMT 48.149399 6.135935 32,125 72 424 -1600
2019-05-20 05:25:07 GMT 48.142990 6.106961 32,200 73 427 -1740
2019-05-20 05:24:55 GMT 48.136379 6.074790 32,750 73 415 -960
2019-05-20 05:24:45 GMT 48.125702 6.023325 32,800 73 449 -960
2019-05-20 05:24:38 GMT 48.122818 6.009381 33,150 72 432 -1800
2019-05-20 05:24:30 GMT 48.114300 5.991493 33,400 73 429 -1860
2019-05-20 05:24:15 GMT 48.101402 5.927476 33,725 75 449 -1920
2019-05-20 05:24:08 GMT 48.101402 5.927476 34,250 75 449 -1920
2019-05-20 05:23:55 GMT 48.092186 5.890433 34,700 77 452 -1792
2019-05-20 05:23:41 GMT 48.080082 5.842403 35,250 81 438 -1472
2019-05-20 05:23:31 GMT 48.076313 5.815500 34,975 72 444 -900
2019-05-20 05:23:24 GMT 48.072399 5.791274 35,350 87 428 -64
2019-05-20 05:23:09 GMT 48.063698 5.729581 35,775 79 423 -120
2019-05-20 05:23:03 GMT 48.063698 5.729581 35,975 88 432 -128
2019-05-20 05:22:51 GMT 48.062580 5.696270 35,950 89 437 0
2019-05-20 05:22:39 GMT 48.063278 5.661410 36,025 89 431 64
2019-05-20 05:22:26 GMT 48.066116 5.624084 36,025 86 436 0
2019-05-20 05:22:17 GMT 48.065186 5.596971 36,000 88 425 0
2019-05-20 05:22:09 GMT 48.060974 5.590992 36,000 88 425 0
2019-05-20 05:21:57 GMT 48.061241 5.554524 36,025 351 231 0
2019-05-20 05:21:39 GMT 48.060741 5.503426 36,000 343 244 0
2019-05-20 05:21:23 GMT 48.059116 5.455650 36,025 268 456 60
2019-05-20 05:21:00 GMT 48.041119 5.210618 36,000 359 308 64
2019-05-20 05:20:46 GMT 48.026314 5.180265 36,000 359 308 64
2019-05-20 05:20:40 GMT 48.020683 5.175687 36,000 359 308 64
2019-05-20 05:20:20 GMT 47.998104 5.170828 35,975 331 468 0
2019-05-20 05:20:07 GMT 47.981998 5.169983 36,025 331 468 0
2019-05-20 05:19:59 GMT 47.969521 5.171884 35,975 331 468 0
2019-05-20 05:19:47 GMT 47.947922 5.148503 36,000 331 468 0
2019-05-20 05:19:36 GMT 47.922596 5.157870 36,000 331 468 0
2019-05-20 05:19:24 GMT 47.889496 5.162166 35,975 331 468 0
2019-05-20 05:19:04 GMT 47.843506 5.188927 36,025 331 468 0
2019-05-20 05:18:50 GMT 47.801888 5.197026 35,975 320 497 64
2019-05-20 05:18:40 GMT 47.801888 5.197026 36,050 320 497 64
2019-05-20 05:18:28 GMT 47.780006 5.223365 36,025 320 497 64
2019-05-20 05:18:22 GMT 47.764179 5.240267 36,025 320 497 64
2019-05-20 05:18:12 GMT 47.734711 5.263296 36,025 311 474 0
2019-05-20 05:17:57 GMT 47.703194 5.288508 36,025 282 441 128
2019-05-20 05:17:35 GMT 47.688297 5.344497 36,025 282 441 128
2019-05-20 05:17:26 GMT 47.682713 5.373019 36,000 278 447 64
2019-05-20 05:17:14 GMT 47.674984 5.414922 36,000 269 451 128
2019-05-20 05:17:01 GMT 47.670284 5.447388 35,975 269 451 128
2019-05-20 05:16:54 GMT 47.670284 5.471403 36,000 269 451 128
2019-05-20 05:16:40 GMT 47.670795 5.511615 36,000 268 456 60
2019-05-20 05:16:33 GMT 47.671307 5.531405 35,975 268 456 60
2019-05-20 05:16:20 GMT 47.671913 5.574998 36,000 268 456 60
2019-05-20 05:16:13 GMT 47.672283 5.603098 35,950 268 456 60
2019-05-20 05:16:00 GMT 47.672703 5.637677 35,975 268 456 60
2019-05-20 05:15:46 GMT 47.673679 5.678312 35,975 269 463 -60
2019-05-20 05:15:37 GMT 47.674007 5.706623 35,975 268 460 -120
2019-05-20 05:15:24 GMT 47.674099 5.747188 35,950 269 468 -120
2019-05-20 05:15:14 GMT 47.674194 5.778104 35,975 268 463 -60
2019-05-20 05:15:06 GMT 47.675079 5.803810 35,950 268 465 -60
2019-05-20 05:14:55 GMT 47.675495 5.836698 36,025 270 466 64
2019-05-20 05:14:44 GMT 47.675823 5.875432 36,025 267 463 -60
2019-05-20 05:14:32 GMT 47.676380 5.916912 35,975 268 452 0
2019-05-20 05:14:24 GMT 47.676613 5.978112 36,000 268 469 0
2019-05-20 05:14:11 GMT 47.676613 5.978112 36,000 268 464 -60
2019-05-20 05:14:03 GMT 47.677078 6.003394 35,975 268 464 0
2019-05-20 05:13:51 GMT 47.677219 6.042621 36,000 268 464 0
2019-05-20 05:13:37 GMT 47.678749 6.069627 36,000 269 458 0
2019-05-20 05:13:27 GMT 47.678196 6.118188 36,000 269 429 180
2019-05-20 05:13:20 GMT 47.678616 6.145935 36,025 268 462 180
2019-05-20 05:13:06 GMT 47.680058 6.207956 36,050 269 478 60
2019-05-20 05:12:53 GMT 47.680058 6.207956 36,000 269 453 -60
2019-05-20 05:12:41 GMT 47.680977 6.276227 35,950 267 431 -60
2019-05-20 05:12:31 GMT 47.681511 6.308268 35,975 269 465 0
2019-05-20 05:12:21 GMT 47.681511 6.308268 36,000 272 462 0
2019-05-20 05:12:10 GMT 47.678989 6.362492 36,000 273 442 0
2019-05-20 05:12:05 GMT 47.682293 6.413973 36,000 269 430 180
2019-05-20 05:11:54 GMT 47.682293 6.413973 36,000 268 461 480
2019-05-20 05:11:42 GMT 47.682480 6.447918 35,950 270 450 192
2019-05-20 05:11:28 GMT 47.682861 6.471024 35,975 268 444 60
2019-05-20 05:11:17 GMT 47.682804 6.505421 35,925 269 454 -900
2019-05-20 05:11:06 GMT 47.682953 6.539761 35,800 269 444 -1200
2019-05-20 05:10:53 GMT 47.684143 6.613044 35,950 266 470 0
2019-05-20 05:10:42 GMT 47.684143 6.613044 36,100 268 441 0
2019-05-20 05:10:30 GMT 47.683403 6.651042 36,150 268 433 780
2019-05-20 05:10:20 GMT 47.682106 6.699407 36,150 272 430 660
2019-05-20 05:10:14 GMT 47.682201 6.714971 36,075 269 476 0
2019-05-20 05:10:03 GMT 47.683743 6.769531 35,975 271 450 60
2019-05-20 05:09:51 GMT 47.683743 6.769531 35,975 270 457 0
2019-05-20 05:09:38 GMT 47.683132 6.811831 35,975 270 443 120
2019-05-20 05:09:28 GMT 47.684372 6.842103 36,000 271 446 -60
2019-05-20 05:09:18 GMT 47.683704 6.872738 35,975 269 454 60
2019-05-20 05:09:07 GMT 47.683853 6.907158 36,000 270 445 0
2019-05-20 05:08:57 GMT 47.683865 6.971771 36,000 269 442 -60
2019-05-20 05:08:46 GMT 47.683865 6.971771 35,975 270 462 120
2019-05-20 05:08:36 GMT 47.683868 7.003570 36,000 271 459 240
2019-05-20 05:08:22 GMT 47.683250 7.047804 35,975 268 434 0
2019-05-20 05:08:12 GMT 47.683521 7.078984 35,875 269 469 -300
2019-05-20 05:08:02 GMT 47.683662 7.109272 35,950 269 463 180
2019-05-20 05:07:52 GMT 47.686054 7.177775 36,000 268 458 60
2019-05-20 05:07:41 GMT 47.686054 7.177775 35,925 276 433 -480
2019-05-20 05:07:30 GMT 47.683411 7.215834 35,900 270 456 -480
2019-05-20 05:07:27 GMT 47.683762 7.221277 35,950 266 463 0
2019-05-20 05:07:16 GMT 47.682617 7.304570 36,025 269 475 300
2019-05-20 05:07:03 GMT 47.682617 7.304570 36,025 271 450 -300
2019-05-20 05:06:52 GMT 47.682106 7.370206 35,975 268 494 -300
2019-05-20 05:06:43 GMT 47.682106 7.370206 36,050 268 428 60
2019-05-20 05:06:34 GMT 47.682739 7.388193 36,075 269 435 60
2019-05-20 05:06:24 GMT 47.682930 7.418112 36,100 266 478 180
2019-05-20 05:06:12 GMT 47.683922 7.457815 36,075 267 501 420
2019-05-20 05:06:08 GMT 47.684639 7.470955 36,050 266 455 360
2019-05-20 05:05:58 GMT 47.685772 7.502191 35,950 268 464 -420
2019-05-20 05:05:46 GMT 47.686390 7.546974 35,875 269 469 -480
2019-05-20 05:05:37 GMT 47.686390 7.577609 36,025 269 449 180
2019-05-20 05:05:27 GMT 47.688202 7.635691 36,050 266 472 0
2019-05-20 05:05:16 GMT 47.688202 7.635691 36,000 266 468 0
2019-05-20 05:05:05 GMT 47.689949 7.670193 36,000 265 469 0
2019-05-20 05:04:55 GMT 47.691486 7.702497 36,000 269 480 0
2019-05-20 05:04:44 GMT 47.692116 7.745573 36,000 267 457 0
2019-05-20 05:04:33 GMT 47.693001 7.775222 36,000 269 481 0
2019-05-20 05:04:26 GMT 47.693069 7.798060 36,000 269 481 0
2019-05-20 05:04:16 GMT 47.693565 7.828144 36,000 270 520 0
2019-05-20 05:04:05 GMT 47.691185 7.874521 36,000 269 469 0
2019-05-20 05:04:00 GMT 47.693214 7.895432 36,000 270 479 0
2019-05-20 05:03:56 GMT 47.693214 7.895432 36,000 269 466 0
2019-05-20 05:03:46 GMT 47.693264 7.927487 36,000 270 484 0
2019-05-20 05:03:35 GMT 47.692581 7.966989 36,000 271 485 51960
2019-05-20 05:03:29 GMT 47.692207 7.990934 36,025 268 477 -60000
2019-05-20 05:03:18 GMT 47.692490 8.024104 36,000 272 472 -64980
2019-05-20 05:03:08 GMT 47.692722 8.060584 36,000 271 484 0
2019-05-20 05:02:58 GMT 47.691509 8.092769 36,000 270 476 -60
2019-05-20 05:02:48 GMT 47.691792 8.118122 36,000 270 492 -60
2019-05-20 05:02:38 GMT 47.692207 8.155306 36,000 271 481 60
2019-05-20 05:02:22 GMT 47.691509 8.204470 36,025 270 482 0
2019-05-20 05:02:12 GMT 47.690907 8.244887 36,000 270 472 60
2019-05-20 05:02:07 GMT 47.690487 8.258197 36,000 270 464 0
2019-05-20 05:01:53 GMT 47.691002 8.299014 36,000 270 466 -60
2019-05-20 05:01:43 GMT 47.690639 8.331089 36,025 270 462 0
2019-05-20 05:01:33 GMT 47.690811 8.367286 36,050 270 484 180
2019-05-20 05:01:23 GMT 47.689880 8.404823 36,025 270 442 240
2019-05-20 05:01:13 GMT 47.691509 8.435035 35,975 261 436 360
2019-05-20 05:00:57 GMT 47.694603 8.478317 35,900 260 470 576
2019-05-20 05:00:46 GMT 47.699932 8.513735 35,800 261 435 600
2019-05-20 05:00:35 GMT 47.707512 8.577730 35,725 261 456 240
2019-05-20 05:00:25 GMT 47.712399 8.615820 35,675 258 448 540
2019-05-20 05:00:13 GMT 47.712399 8.615820 35,600 260 462 540
2019-05-20 05:00:03 GMT 47.715950 8.647150 35,525 258 443 240
2019-05-20 04:59:52 GMT 47.722515 8.697791 35,450 259 427 720
2019-05-20 04:59:47 GMT 47.725891 8.723182 35,375 259 453 900
2019-05-20 04:59:38 GMT 47.725891 8.723182 35,325 257 421 900
2019-05-20 04:59:28 GMT 47.729965 8.753060 35,125 260 441 780
2019-05-20 04:59:18 GMT 47.733513 8.782979 35,050 259 453 1560
2019-05-20 04:59:08 GMT 47.740391 8.829627 34,875 258 453 1320
2019-05-20 04:59:03 GMT 47.742020 8.842022 34,725 259 444 1380
2019-05-20 04:58:49 GMT 47.744743 8.870378 34,525 259 465 720
2019-05-20 04:58:38 GMT 47.751377 8.918715 34,375 259 443 780
2019-05-20 04:58:30 GMT 47.754498 8.943294 34,100 258 465 1080
2019-05-20 04:58:16 GMT 47.757702 8.971222 33,975 259 432 1320
2019-05-20 04:58:06 GMT 47.763618 9.017592 33,850 259 454 1080
2019-05-20 04:58:00 GMT 47.766415 9.038790 33,675 259 447 1560
2019-05-20 04:57:48 GMT 47.771114 9.075200 33,350 256 423 900
2019-05-20 04:57:34 GMT 47.776096 9.115202 33,275 260 450 960
2019-05-20 04:57:28 GMT 47.778282 9.133512 33,150 260 450 960
2019-05-20 04:57:16 GMT 47.782520 9.173091 32,925 260 445 780
2019-05-20 04:57:02 GMT 47.784588 9.195922 32,800 257 450 1380
2019-05-20 04:56:52 GMT 47.791782 9.241192 32,425 260 443 1024
2019-05-20 04:56:45 GMT 47.794579 9.265489 32,400 259 447 1200
2019-05-20 04:56:35 GMT 47.799000 9.301124 32,100 259 435 1200
2019-05-20 04:56:19 GMT 47.801392 9.325712 32,050 255 420 2040
2019-05-20 04:56:09 GMT 47.807613 9.376620 31,875 258 421 1800
2019-05-20 04:56:00 GMT 47.810684 9.400283 31,700 260 435 896
2019-05-20 04:55:54 GMT 47.816689 9.447397 31,550 249 413 1088
2019-05-20 04:55:45 GMT 47.816689 9.447397 31,400 249 413 1088
2019-05-20 04:55:41 GMT 47.820183 9.479370 31,325 249 413 1088
2019-05-20 04:55:35 GMT 47.820183 9.479370 31,225 249 413 1088
2019-05-20 04:55:27 GMT 47.822182 9.496906 31,150 249 413 1088
2019-05-20 04:55:22 GMT 47.822697 9.510991 31,100 249 413 1088
2019-05-20 04:55:13 GMT 47.829121 9.570007 30,875 249 413 1088
2019-05-20 04:55:02 GMT 47.829121 9.570007 30,700 249 413 1088
2019-05-20 04:54:51 GMT 47.832516 9.607121 30,550 249 413 1088
2019-05-20 04:54:10 GMT 47.864594 9.723393 29,875 249 413 1088
2019-05-20 04:54:04 GMT 47.867477 9.733535 29,575 249 413 1088
2019-05-20 04:53:54 GMT 47.875580 9.765578 29,575 249 413 1088
2019-05-20 04:53:48 GMT 47.879116 9.778888 29,525 249 406 1792
2019-05-20 04:53:42 GMT 47.891777 9.826285 29,325 249 406 1792
2019-05-20 04:53:31 GMT 47.891777 9.826285 29,150 249 406 1792
2019-05-20 04:53:19 GMT 47.898205 9.850088 29,025 249 406 1792
2019-05-20 04:53:05 GMT 47.913612 9.907626 28,800 249 403 1792
2019-05-20 04:52:58 GMT 47.913612 9.907626 28,525 249 403 1792
2019-05-20 04:52:47 GMT 47.920689 9.934035 28,225 249 413 1472
2019-05-20 04:52:36 GMT 47.928696 9.964388 27,875 249 413 1472
2019-05-20 04:52:28 GMT 47.933723 9.982769 27,625 249 413 1472
2019-05-20 04:52:14 GMT 47.944523 10.021574 27,325 249 413 1472
2019-05-20 04:52:09 GMT 47.948898 10.037419 27,000 249 413 1472
2019-05-20 04:51:55 GMT 47.959000 10.074885 26,675 249 413 1472
2019-05-20 04:51:47 GMT 47.964123 10.093478 26,025 249 408 1472
2019-05-20 04:51:42 GMT 47.971802 10.122704 26,275 249 392 1472
2019-05-20 04:51:35 GMT 47.971802 10.122704 26,025 249 392 1472
2019-05-20 04:51:22 GMT 47.980598 10.156015 25,825 249 392 1472
2019-05-20 04:51:15 GMT 47.986000 10.176579 25,575 249 392 1472
2019-05-20 04:51:09 GMT 47.992287 10.200383 25,225 249 392 1472
2019-05-20 04:51:03 GMT 47.995403 10.211369 25,250 249 392 1472
2019-05-20 04:50:56 GMT 47.999779 10.227919 25,100 249 392 1472
2019-05-20 04:50:49 GMT 48.004482 10.245878 25,000 249 392 1472
2019-05-20 04:50:36 GMT 48.013000 10.279823 24,700 249 392 1472
2019-05-20 04:50:30 GMT 48.018307 10.300035 24,175 249 392 1472
2019-05-20 04:50:17 GMT 48.024776 10.327782 24,125 249 367 1792
2019-05-20 04:50:10 GMT 48.031017 10.347220 23,875 249 367 1792
2019-05-20 04:49:56 GMT 48.039909 10.379897 23,625 249 367 1792
2019-05-20 04:49:49 GMT 48.045216 10.400320 23,350 249 367 1792
2019-05-20 04:49:34 GMT 48.054016 10.439621 23,125 249 367 1792
2019-05-20 04:49:25 GMT 48.059319 10.461097 22,875 249 367 1792
2019-05-20 04:49:15 GMT 48.068211 10.486309 22,600 249 367 1792
2019-05-20 04:49:02 GMT 48.076080 10.516310 22,375 249 367 1792
2019-05-20 04:48:57 GMT 48.080502 10.533494 22,050 249 367 1792
2019-05-20 04:48:44 GMT 48.086086 10.558073 21,800 249 367 1792
2019-05-20 04:48:29 GMT 48.095306 10.594412 21,575 249 367 1792
2019-05-20 04:48:24 GMT 48.098797 10.606525 21,125 249 364 1856
2019-05-20 04:48:13 GMT 48.105595 10.631878 20,975
2019-05-20 04:48:02 GMT 48.112484 10.657513 20,600
2019-05-20 04:47:45 GMT 48.128590 10.717022 20,225
2019-05-20 04:47:37 GMT 48.128590 10.717022 19,975

Making use of Plane Finder data

You are free to use the raw flight data, aircraft information and images provided in this report for your own purposes provided the data is correctly attributed to Plane Finder. We ask that you please credit Plane Finder and link to planefinder.net in close proximity to the content.

Optionally one of the following logos (no smaller then 150x24px) can be used and must link to planefinder.net

Embedding the Plane Finder map

You are welcome to embed the Plane Finder playback map on your website to offer visitors a more interactive experience. We suggest using the following HTML code:

<iframe src="//planefinder.net/data/report/LH1255-D-ACNH-7700-squawk-2019-05-20/map" width="800" height="600" seamless="seamless"></iframe>

Where our data comes from

Plane Finder has a global network of data feeds and antenna radars that receive data broadcast directly from aircraft. The primary technologies used are ADS-B and MLAT. We also show feeds from the FAA and a FLARM glider feed.

Click here to find out more about the Plane Finder network.

How we collect our data